SBOSBO BLQ / LIPE
Speedbird OnlineSpeedbird Online BLQ / LIPE

Bologna Guglielmo Marconi Airport
10:21 18.9°C

Location Bologna, Italy
Latitude: 44.5354
Longitude: 11.2887
Web Airport Website | Wikipedia
Altitude 37 Meter / 123 Feet
Distance 1,133 KM / 704 Miles
from London.
Time Zone UTC +2 hours (Europe/Rome)
Codes IATA: BLQ
ICAO: LIPE
Currency £1 equals EUR 1.15
Runways
RunwayLength (m)Surface
122803Asphalt
302803Asphalt
Radio
TypeDescriptionFrequency
APPAPP120.1
ATISATIS134.875
GNDGND129.925
TWRTWR120.8
Live ATC
METAR LIPE 060750Z 24004KT 200V290 CAVOK 18/14 Q1028
TAF TAF LIPE 060500Z 0606/0706 VRB05KT 9999 FEW040
Weather As Of 06 Oct 2022 10:21
Description Clear sky
Wind 7 km/h from South-West (240°)
Cloud Cover 0%
Precipitation Rain: none, Snow: none
Sunrise 07:18
Sunset 18:47
Lounges Marconi Business Lounge , Terminal A
Rotations During the last 90 days there were
217 flights from LHR
1 flights from LCY
216 flights to LHR
1 flights to FCO
1 flights to VCE
1 flights to STN


© 2017-2022 Speedbird Online